Time;durP1;ratioP1;P1;durP2;ratioP2;P2;SDS_P1;SDS_P2;PMS_P1;PMS_P2;Temp;Humidity;BMP_temperature;BMP_pressure;BME280_temperature;BME280_humidity;BME280_pressure;Samples;Min_cycle;Max_cycle;Signal;HPM_P1;HPM_P2
2023/12/20 00:02:25;;;;;;;4.10;1.08;;;;;;;18.94;38.90;101658.34;16131796;19;129953;-61
2023/12/20 00:07:47;;;;;;;3.05;1.00;;;;;;;18.90;38.77;101675.44;16128663;19;129816;-61
2023/12/20 00:13:10;;;;;;;4.75;1.25;;;;;;;18.86;38.86;101674.22;16129197;19;129537;-60
2023/12/20 00:18:32;;;;;;;2.28;0.90;;;;;;;18.82;38.73;101674.91;16127755;19;130888;-61
2023/12/20 00:23:54;;;;;;;3.63;0.90;;;;;;;18.79;39.22;101661.50;16130322;19;130773;-61
2023/12/20 00:29:16;;;;;;;5.07;1.10;;;;;;;18.73;39.30;101655.78;16124989;19;131202;-61
2023/12/20 00:34:38;;;;;;;4.15;1.15;;;;;;;18.69;39.30;101646.25;16122992;19;129787;-61
2023/12/20 00:40:00;;;;;;;3.53;1.05;;;;;;;18.66;39.11;101657.78;16129043;19;130369;-61
2023/12/20 00:45:22;;;;;;;4.22;1.20;;;;;;;18.63;39.43;101663.78;16125744;19;129032;-61
2023/12/20 00:50:43;;;;;;;5.65;0.85;;;;;;;18.58;39.18;101652.56;16123901;19;131273;-61
2023/12/20 00:56:06;;;;;;;4.70;0.98;;;;;;;18.55;39.34;101656.59;16124942;19;130035;-60
2023/12/20 01:01:28;;;;;;;2.45;0.80;;;;;;;18.52;39.62;101661.75;16123577;19;129965;-61
2023/12/20 01:06:50;;;;;;;2.92;0.90;;;;;;;18.49;39.64;101656.66;16126338;19;129433;-61
2023/12/20 01:12:12;;;;;;;3.25;0.63;;;;;;;18.46;39.56;101664.34;16125145;19;129901;-61
2023/12/20 01:17:34;;;;;;;3.67;1.02;;;;;;;18.42;39.59;101668.66;16125039;19;130155;-61
2023/12/20 01:22:56;;;;;;;1.73;0.80;;;;;;;18.38;39.63;101659.06;16123750;19;130160;-60
2023/12/20 01:28:18;;;;;;;4.50;0.80;;;;;;;18.36;39.63;101660.38;16122218;19;129837;-61
2023/12/20 01:33:39;;;;;;;2.47;0.70;;;;;;;18.32;39.71;101662.75;16118007;19;130131;-61
2023/12/20 01:39:01;;;;;;;1.45;0.60;;;;;;;18.30;39.55;101668.50;16124630;19;130433;-61
2023/12/20 01:44:28;;;;;;;2.03;0.70;;;;;;;18.29;39.45;101669.59;16123298;19;130287;-61
2023/12/20 01:49:50;;;;;;;1.58;0.60;;;;;;;18.27;39.43;101662.59;16121095;19;130761;-61
2023/12/20 01:55:15;;;;;;;3.05;0.75;;;;;;;18.23;39.54;101664.97;16121101;19;130396;-61
2023/12/20 02:00:37;;;;;;;1.88;0.93;;;;;;;18.23;39.44;101655.78;16121249;19;129562;-61
2023/12/20 02:06:00;;;;;;;4.35;0.98;;;;;;;18.20;39.49;101653.50;16121059;19;131136;-60
2023/12/20 02:11:22;;;;;;;1.48;0.47;;;;;;;18.19;39.91;101671.19;16121070;19;131040;-61
2023/12/20 02:16:43;;;;;;;1.30;0.52;;;;;;;18.18;39.57;101678.63;16119009;19;130881;-61
2023/12/20 02:22:10;;;;;;;1.70;0.50;;;;;;;18.17;39.55;101665.00;16120412;19;129471;-61
2023/12/20 02:27:32;;;;;;;1.45;0.60;;;;;;;18.13;39.59;101671.00;16121134;19;130842;-61
2023/12/20 02:32:54;;;;;;;1.27;0.50;;;;;;;18.13;39.75;101675.69;16119116;19;130210;-61
2023/12/20 02:38:16;;;;;;;0.90;0.50;;;;;;;18.12;39.57;101679.53;16115076;19;130454;-60
2023/12/20 02:43:38;;;;;;;2.00;0.68;;;;;;;18.09;39.74;101672.50;16121971;19;129991;-60
2023/12/20 02:49:00;;;;;;;2.20;0.65;;;;;;;18.08;39.99;101662.53;16123630;19;130076;-61
2023/12/20 02:54:22;;;;;;;1.27;0.40;;;;;;;18.08;39.87;101662.53;16124056;19;130234;-61
2023/12/20 02:59:44;;;;;;;1.70;0.50;;;;;;;18.08;39.73;101672.75;16118784;19;131101;-61
2023/12/20 03:05:06;;;;;;;1.15;0.40;;;;;;;18.06;40.08;101677.66;16118412;19;130231;-61
2023/12/20 03:10:28;;;;;;;1.70;0.45;;;;;;;18.04;39.94;101672.34;16118187;19;129746;-61
2023/12/20 03:15:50;;;;;;;1.08;0.65;;;;;;;18.02;39.82;101660.66;16120184;19;129664;-61
2023/12/20 03:21:12;;;;;;;2.42;0.50;;;;;;;18.02;39.58;101654.28;16120108;19;129134;-61
2023/12/20 03:26:34;;;;;;;2.40;0.60;;;;;;;18.00;39.57;101654.47;16114188;19;130446;-61
2023/12/20 03:31:56;;;;;;;1.13;0.50;;;;;;;17.99;39.83;101659.19;16115575;19;130424;-61
2023/12/20 03:37:18;;;;;;;1.90;0.57;;;;;;;17.98;39.64;101651.09;16113651;19;129746;-60
2023/12/20 03:42:40;;;;;;;0.70;0.40;;;;;;;17.96;39.99;101659.63;16112989;19;130681;-61
2023/12/20 03:48:02;;;;;;;1.85;0.50;;;;;;;17.96;39.67;101656.03;16113237;19;129453;-61
2023/12/20 03:53:24;;;;;;;1.48;0.50;;;;;;;17.95;39.57;101646.00;16112534;19;131378;-61
2023/12/20 03:58:46;;;;;;;1.65;0.70;;;;;;;17.94;40.01;101649.84;16122071;19;129921;-61
2023/12/20 04:04:08;;;;;;;0.80;0.30;;;;;;;17.92;39.82;101652.00;16111958;19;129344;-61
2023/12/20 04:09:30;;;;;;;2.45;0.70;;;;;;;17.91;40.00;101653.06;16117660;19;131273;-61
2023/12/20 04:14:52;;;;;;;0.95;0.40;;;;;;;17.89;39.98;101653.28;16112990;19;130559;-61
2023/12/20 04:20:14;;;;;;;1.83;0.68;;;;;;;17.90;39.54;101654.13;16113346;19;130133;-60
2023/12/20 04:25:36;;;;;;;2.63;0.60;;;;;;;17.90;39.56;101660.53;16111294;19;130528;-61
2023/12/20 04:30:58;;;;;;;4.78;0.63;;;;;;;17.92;39.89;101660.31;16111925;19;131094;-60
2023/12/20 04:36:20;;;;;;;1.85;0.52;;;;;;;17.90;39.89;101657.75;16110437;19;130231;-60
2023/12/20 04:41:42;;;;;;;1.95;0.50;;;;;;;17.88;39.69;101668.22;16127421;19;129770;-61
2023/12/20 04:47:04;;;;;;;3.60;0.93;;;;;;;17.85;39.92;101652.88;16124845;19;130386;-61
2023/12/20 04:52:26;;;;;;;0.80;0.40;;;;;;;17.85;39.92;101666.72;16130195;19;131430;-61
2023/12/20 04:57:48;;;;;;;1.52;0.70;;;;;;;17.84;39.62;101667.81;16125717;19;129517;-61
2023/12/20 05:03:10;;;;;;;1.65;0.45;;;;;;;17.83;39.47;101654.19;16122041;19;130395;-61
2023/12/20 05:08:32;;;;;;;2.60;0.60;;;;;;;17.79;39.65;101659.31;16127391;19;130435;-61
2023/12/20 05:13:55;;;;;;;1.70;0.60;;;;;;;17.80;39.80;101655.47;16125388;19;130954;-61
2023/12/20 05:19:17;;;;;;;1.05;0.50;;;;;;;17.76;39.55;101648.69;16119004;19;131917;-60
2023/12/20 05:24:39;;;;;;;1.98;0.25;;;;;;;17.75;39.50;101633.16;16123150;19;130025;-60
2023/12/20 05:30:02;;;;;;;2.90;0.90;;;;;;;17.73;39.78;101632.50;16124398;19;129681;-60
2023/12/20 05:35:24;;;;;;;1.90;0.60;;;;;;;17.74;39.92;101627.84;16120705;19;129848;-61
2023/12/20 05:40:46;;;;;;;2.05;0.60;;;;;;;17.74;39.86;101641.69;16124457;19;130547;-61
2023/12/20 05:46:11;;;;;;;2.55;0.70;;;;;;;17.73;39.64;101634.44;16124629;19;130077;-61
2023/12/20 05:51:33;;;;;;;;;;;;;;;17.67;39.43;101656.38;16123971;19;130094;-60
2023/12/20 05:56:56;;;;;;;2.85;0.70;;;;;;;17.68;39.80;101660.03;16123605;19;133107;-60
2023/12/20 06:02:17;;;;;;;1.23;0.50;;;;;;;17.71;39.87;101673.44;16120719;19;129431;-60
2023/12/20 06:07:39;;;;;;;3.53;0.60;;;;;;;17.72;39.83;101674.25;16121370;19;129718;-60
2023/12/20 06:13:01;;;;;;;1.20;0.60;;;;;;;17.77;39.28;101677.22;16119697;19;130106;-60
2023/12/20 06:18:24;;;;;;;4.25;0.88;;;;;;;17.84;39.26;101670.56;16117896;19;131640;-68
2023/12/20 06:23:46;;;;;;;6.30;0.82;;;;;;;17.86;39.32;101678.66;16109025;19;130803;-61
2023/12/20 06:29:08;;;;;;;8.48;0.90;;;;;;;17.82;39.40;101669.09;16113676;19;131365;-60
2023/12/20 06:34:30;;;;;;;5.80;1.05;;;;;;;17.84;39.25;101669.72;16115106;19;132471;-60
2023/12/20 06:39:52;;;;;;;3.53;0.90;;;;;;;17.84;39.41;101669.72;16114411;19;129802;-60
2023/12/20 06:45:15;;;;;;;5.28;0.80;;;;;;;17.80;39.52;101665.69;16116693;19;129925;-61
2023/12/20 06:50:39;;;;;;;8.65;0.90;;;;;;;17.75;39.25;101658.06;16114636;19;129978;-60
2023/12/20 06:56:02;;;;;;;2.47;0.80;;;;;;;17.70;39.27;101668.97;16109409;19;130558;-60
2023/12/20 07:01:24;;;;;;;2.22;0.90;;;;;;;17.66;39.43;101670.47;16109862;19;130268;-60
2023/12/20 07:06:46;;;;;;;3.47;0.93;;;;;;;17.65;39.35;101657.69;16113556;19;129410;-60
2023/12/20 07:12:09;;;;;;;3.58;1.15;;;;;;;17.63;39.61;101657.94;16113506;19;129594;-60
2023/12/20 07:17:33;;;;;;;3.63;0.90;;;;;;;17.60;39.26;101661.13;16112722;19;130149;-60
2023/12/20 07:22:55;;;;;;;4.32;1.33;;;;;;;17.57;39.66;101644.97;16113930;19;130831;-60
2023/12/20 07:28:20;;;;;;;5.00;1.00;;;;;;;17.56;39.71;101647.97;16111435;19;130956;-60
2023/12/20 07:33:42;;;;;;;5.63;1.10;;;;;;;17.52;39.52;101642.00;16106307;19;131418;-60
2023/12/20 07:39:04;;;;;;;3.53;0.98;;;;;;;17.50;39.32;101638.59;16112372;19;129551;-60
2023/12/20 07:44:26;;;;;;;3.50;1.13;;;;;;;17.47;39.46;101656.50;16110520;19;129166;-60
2023/12/20 07:49:49;;;;;;;3.10;0.85;;;;;;;17.46;39.40;101665.88;16115461;19;129677;-60
2023/12/20 07:55:11;;;;;;;5.38;1.30;;;;;;;17.43;39.62;101660.75;16109131;19;130805;-60
2023/12/20 08:00:33;;;;;;;6.22;1.23;;;;;;;17.41;39.46;101676.72;16113317;19;130597;-60
2023/12/20 08:05:56;;;;;;;3.40;0.90;;;;;;;17.38;39.51;101685.47;16113515;19;131327;-60
2023/12/20 08:11:18;;;;;;;5.47;1.02;;;;;;;17.36;39.54;101688.44;16110308;19;129568;-60
2023/12/20 08:16:40;;;;;;;5.20;1.45;;;;;;;17.34;39.53;101684.22;16127611;19;129685;-60
2023/12/20 08:22:02;;;;;;;6.10;1.58;;;;;;;17.32;39.64;101673.34;16125940;19;131567;-60
2023/12/20 08:27:25;;;;;;;3.20;1.05;;;;;;;17.32;39.28;101664.22;16126957;19;129744;-60
2023/12/20 08:32:48;;;;;;;6.90;1.15;;;;;;;17.31;39.28;101674.41;16125349;19;130285;-60
2023/12/20 08:38:10;;;;;;;6.05;1.10;;;;;;;17.26;39.26;101671.47;16124436;19;132614;-59
2023/12/20 08:43:34;;;;;;;3.47;1.00;;;;;;;17.25;39.47;101689.13;16126634;19;130949;-60
2023/12/20 08:48:56;;;;;;;4.55;1.10;;;;;;;17.24;39.33;101671.69;16119529;19;129681;-60
2023/12/20 08:54:19;;;;;;;3.20;1.00;;;;;;;17.24;39.66;101665.31;16124697;19;130076;-60
2023/12/20 08:59:41;;;;;;;3.58;1.00;;;;;;;17.26;39.46;101667.84;16121237;19;129858;-60
2023/12/20 09:05:03;;;;;;;5.55;0.98;;;;;;;17.25;39.51;101672.53;16119076;19;129673;-60
2023/12/20 09:10:25;;;;;;;1.75;0.90;;;;;;;17.24;39.11;101668.91;16127727;19;130378;-60
2023/12/20 09:15:47;;;;;;;2.17;0.95;;;;;;;17.26;39.16;101681.69;16122972;19;131011;-60
2023/12/20 09:21:09;;;;;;;4.50;1.30;;;;;;;17.24;39.14;101666.16;16123257;19;131126;-59
2023/12/20 09:26:31;;;;;;;4.55;1.35;;;;;;;17.24;39.41;101662.53;16122679;19;129115;-60
2023/12/20 09:31:53;;;;;;;3.67;1.27;;;;;;;17.24;39.42;101670.84;16119536;19;130428;-60
2023/12/20 09:37:15;;;;;;;4.35;1.13;;;;;;;17.23;39.53;101667.22;16122239;19;130767;-60
2023/12/20 09:42:56;;;;;;;4.28;1.00;;;;;;;17.25;39.36;101680.84;16118345;19;130331;-60
2023/12/20 09:48:19;;;;;;;3.42;0.95;;;;;;;17.22;38.98;101660.00;16120286;19;129538;-60
2023/12/20 09:53:43;;;;;;;3.03;1.10;;;;;;;17.21;39.10;101663.84;16116287;19;130512;-60
2023/12/20 09:59:05;;;;;;;4.30;1.00;;;;;;;17.20;39.46;101650.22;16117334;19;130529;-60
2023/12/20 10:04:28;;;;;;;3.38;1.10;;;;;;;17.20;39.13;101650.22;16119212;19;129388;-60
2023/12/20 10:09:54;;;;;;;3.80;1.02;;;;;;;17.19;39.34;101671.50;16120078;19;131121;-60
2023/12/20 10:15:16;;;;;;;3.67;1.10;;;;;;;17.17;39.46;101670.88;16120875;19;130871;-60
2023/12/20 10:20:40;;;;;;;3.22;1.00;;;;;;;17.19;39.24;101670.63;16115327;19;130412;-60
2023/12/20 10:26:02;;;;;;;3.50;1.30;;;;;;;17.17;39.28;101670.03;16118414;19;129563;-60
2023/12/20 10:31:27;;;;;;;3.08;1.27;;;;;;;17.17;39.04;101657.03;16117681;19;130242;-60
2023/12/20 10:36:50;;;;;;;6.22;1.00;;;;;;;17.16;39.14;101647.03;16111815;19;130808;-59
2023/12/20 10:42:13;;;;;;;6.13;0.98;;;;;;;17.16;39.06;101644.28;16117512;19;129055;-60
2023/12/20 10:47:37;;;;;;;2.05;0.82;;;;;;;17.14;39.08;101646.41;16114764;19;130742;-60
2023/12/20 10:53:02;;;;;;;3.42;0.93;;;;;;;17.13;39.23;101641.13;16117219;19;130290;-60
2023/12/20 10:58:27;;;;;;;4.53;1.25;;;;;;;17.12;39.25;101620.91;16119338;19;129478;-60
2023/12/20 11:03:51;;;;;;;3.88;1.08;;;;;;;17.09;39.11;101607.53;16117352;19;129570;-60
2023/12/20 11:09:18;;;;;;;5.18;1.25;;;;;;;17.09;39.12;101604.78;16112941;19;129355;-60
2023/12/20 11:14:47;;;;;;;6.60;1.02;;;;;;;17.07;39.09;101612.44;16114596;19;129830;-60
2023/12/20 11:20:11;;;;;;;4.15;0.95;;;;;;;17.04;39.48;101604.56;16116358;19;131187;-60
2023/12/20 11:25:52;;;;;;;7.18;1.35;;;;;;;17.04;39.52;101608.19;16118098;19;129627;-60
2023/12/20 11:31:15;;;;;;;4.78;1.05;;;;;;;17.01;39.51;101602.22;16116850;19;129340;-60
2023/12/20 11:36:39;;;;;;;2.28;0.88;;;;;;;17.01;39.49;101599.47;16108778;19;129430;-60
2023/12/20 11:42:06;;;;;;;3.80;1.00;;;;;;;16.99;39.40;101587.78;16117552;19;129384;-60
2023/12/20 11:47:28;;;;;;;3.88;1.00;;;;;;;16.96;39.27;101582.72;16115224;19;129317;-60
2023/12/20 11:52:52;;;;;;;3.40;0.88;;;;;;;16.96;39.23;101578.00;16128291;19;129630;-60
2023/12/20 11:58:15;;;;;;;3.70;1.10;;;;;;;16.95;39.63;101576.31;16126765;19;129557;-60
2023/12/20 12:03:37;;;;;;;3.08;0.90;;;;;;;16.95;39.43;101576.31;16126617;19;129139;-60
2023/12/20 12:08:59;;;;;;;3.60;1.00;;;;;;;16.95;39.49;101576.31;16128991;19;130716;-60
2023/12/20 12:14:21;;;;;;;3.17;1.00;;;;;;;16.92;39.35;101572.09;16125309;19;130988;-60
2023/12/20 12:19:43;;;;;;;4.43;0.95;;;;;;;16.93;39.24;101567.38;16124998;19;129513;-60
2023/12/20 12:25:13;;;;;;;1.95;0.88;;;;;;;16.94;39.08;101546.97;16125405;19;130582;-60
2023/12/20 12:30:35;;;;;;;3.50;1.20;;;;;;;16.91;39.15;101539.16;16125278;19;128976;-60
2023/12/20 12:36:07;;;;;;;1.65;0.90;;;;;;;16.90;39.50;101531.91;16125949;19;129132;-60
2023/12/20 12:41:29;;;;;;;4.82;1.20;;;;;;;16.90;39.34;101524.47;16119522;19;131218;-60
2023/12/20 12:46:53;;;;;;;3.33;1.02;;;;;;;16.88;39.27;101523.81;16124264;19;130183;-60
2023/12/20 12:52:15;;;;;;;3.10;0.85;;;;;;;16.87;39.18;101519.38;16127034;19;130236;-60
2023/12/20 12:57:37;;;;;;;2.30;0.98;;;;;;;16.88;39.66;101517.47;16123842;19;129838;-60
2023/12/20 13:02:59;;;;;;;3.00;1.10;;;;;;;16.87;39.15;101511.06;16124379;19;131592;-60
2023/12/20 13:08:21;;;;;;;2.90;0.95;;;;;;;16.86;39.18;101506.63;16120478;19;129195;-61
2023/12/20 13:13:43;;;;;;;3.10;1.20;;;;;;;16.85;39.31;101480.06;16119421;19;129449;-61
2023/12/20 13:19:05;;;;;;;3.35;1.20;;;;;;;16.84;39.21;101475.63;16122336;19;129635;-60
2023/12/20 13:24:29;;;;;;;3.67;0.93;;;;;;;16.84;39.63;101469.22;16122675;19;131490;-60
2023/12/20 13:29:51;;;;;;;2.58;0.77;;;;;;;16.84;39.31;101469.22;16122896;19;132429;-60
2023/12/20 13:35:12;;;;;;;2.97;0.80;;;;;;;16.83;39.20;101449.03;16119528;19;131096;-60
2023/12/20 13:40:35;;;;;;;1.98;0.88;;;;;;;16.84;39.32;101441.59;16121702;19;129520;-60
2023/12/20 13:45:57;;;;;;;3.63;1.40;;;;;;;16.82;39.26;101428.00;16116832;19;130149;-59
2023/12/20 13:51:20;;;;;;;3.47;1.00;;;;;;;16.82;39.25;101416.09;16119907;19;130749;-59
2023/12/20 13:56:43;;;;;;;2.47;0.88;;;;;;;16.82;39.12;101432.66;16119553;19;130811;-59
2023/12/20 14:02:23;;;;;;;4.00;1.25;;;;;;;16.80;39.11;101413.56;16117639;19;129618;-59
2023/12/20 14:07:45;;;;;;;3.45;1.10;;;;;;;16.80;39.36;101396.97;16119468;19;129772;-59
2023/12/20 14:13:11;;;;;;;3.50;1.20;;;;;;;16.80;39.48;101390.63;16115742;19;131250;-59
2023/12/20 14:18:33;;;;;;;3.85;0.95;;;;;;;16.80;39.41;101393.38;16118341;19;130242;-59
2023/12/20 14:23:55;;;;;;;2.40;0.75;;;;;;;16.79;39.12;101395.28;16115531;19;129642;-58
2023/12/20 14:29:18;;;;;;;2.53;0.90;;;;;;;16.80;39.42;101391.44;16116763;19;129854;-59
2023/12/20 14:34:40;;;;;;;4.38;1.02;;;;;;;16.80;39.15;101396.16;16115928;19;129626;-59
2023/12/20 14:40:02;;;;;;;4.65;1.10;;;;;;;16.77;39.51;101398.28;16114065;19;129782;-59
2023/12/20 14:45:24;;;;;;;3.70;0.95;;;;;;;16.78;39.52;101388.06;16117269;19;131159;-59
2023/12/20 14:50:48;;;;;;;4.88;1.02;;;;;;;16.75;39.39;101382.97;16112439;19;129647;-59
2023/12/20 14:56:10;;;;;;;2.58;0.93;;;;;;;16.75;39.31;101385.72;16113362;19;130080;-59
2023/12/20 15:01:32;;;;;;;2.42;0.88;;;;;;;16.72;39.39;101384.28;16115167;19;130316;-62
2023/12/20 15:06:55;;;;;;;3.15;0.88;;;;;;;16.74;39.62;101392.31;16115610;19;130061;-61
2023/12/20 15:12:16;;;;;;;2.60;0.90;;;;;;;16.73;39.38;101396.19;16113148;19;129261;-59
2023/12/20 15:17:38;;;;;;;2.10;0.90;;;;;;;16.72;39.28;101394.50;16114899;19;130161;-59
2023/12/20 15:23:04;;;;;;;3.17;1.10;;;;;;;16.69;39.23;101395.75;16112342;19;131140;-59
2023/12/20 15:28:26;;;;;;;5.00;1.05;;;;;;;16.68;39.43;101410.63;16111594;19;129816;-61
2023/12/20 15:33:48;;;;;;;4.05;1.02;;;;;;;16.68;39.21;101421.69;16108657;19;129898;-59
2023/12/20 15:39:13;;;;;;;3.22;0.88;;;;;;;16.68;39.34;101427.22;16113233;19;130457;-59
2023/12/20 15:44:36;;;;;;;;;;;;;;;16.65;39.62;101413.84;16112363;19;130892;-59
2023/12/20 15:49:58;;;;;;;5.07;1.20;;;;;;;16.68;39.33;101420.84;16109162;19;129997;-59
2023/12/20 15:55:20;;;;;;;3.13;0.90;;;;;;;16.79;39.29;101419.31;16110773;19;130557;-59
2023/12/20 16:00:42;;;;;;;2.28;0.88;;;;;;;17.05;39.26;101410.81;16109574;19;130327;-59
2023/12/20 16:06:04;;;;;;;2.17;0.70;;;;;;;17.42;38.68;101409.25;16111601;19;129430;-59
2023/12/20 16:11:26;;;;;;;1.92;0.80;;;;;;;17.77;38.54;101398.53;16103523;19;130932;-59
2023/12/20 16:16:48;;;;;;;2.38;0.90;;;;;;;18.11;38.19;101404.53;16103437;19;129446;-62
2023/12/20 16:22:10;;;;;;;3.58;0.80;;;;;;;18.43;37.94;101373.94;16105744;19;130797;-60
2023/12/20 16:27:33;;;;;;;5.18;0.80;;;;;;;18.68;37.25;101367.41;16110623;19;131806;-64
2023/12/20 16:32:55;;;;;;;3.40;1.05;;;;;;;18.86;37.24;101362.84;16108943;19;129892;-63
2023/12/20 16:38:17;;;;;;;5.38;1.63;;;;;;;18.96;36.83;101352.03;16118754;19;131418;-66
2023/12/20 16:43:39;;;;;;;4.55;1.20;;;;;;;19.00;37.17;101344.94;16120616;19;129295;-66
2023/12/20 16:49:01;;;;;;;4.28;1.27;;;;;;;19.02;36.77;101330.81;16122384;19;130995;-66
2023/12/20 16:54:23;;;;;;;5.97;1.75;;;;;;;18.99;37.39;101306.34;16116981;19;129524;-64
2023/12/20 16:59:45;;;;;;;5.60;1.52;;;;;;;18.95;37.71;101300.44;16122704;19;129568;-65
2023/12/20 17:05:09;;;;;;;6.60;1.75;;;;;;;;;;16118067;19;129619;-63
2023/12/20 17:10:31;;;;;;;4.25;1.35;;;;;;;18.84;38.35;101271.63;16122861;19;129411;-63
2023/12/20 17:15:53;;;;;;;7.10;1.45;;;;;;;18.79;38.10;101267.88;16117014;19;129784;-66
2023/12/20 17:21:16;;;;;;;10.10;1.52;;;;;;;18.74;38.36;101272.22;16122696;19;133052;-59
2023/12/20 17:26:38;;;;;;;6.55;1.40;;;;;;;18.82;38.61;101275.72;16120748;19;130512;-63
2023/12/20 17:32:00;;;;;;;11.95;2.33;;;;;;;19.02;38.78;101273.44;16118779;19;130269;-63
2023/12/20 17:37:22;;;;;;;12.63;1.50;;;;;;;19.32;38.56;101266.09;16120611;19;129478;-60
2023/12/20 17:42:45;;;;;;;9.73;1.73;;;;;;;19.61;37.75;101239.28;16122019;19;130760;-60
2023/12/20 17:48:07;;;;;;;9.40;1.33;;;;;;;19.87;37.79;101233.41;16121124;19;130048;-60
2023/12/20 17:53:29;;;;;;;6.53;1.50;;;;;;;20.09;37.29;101222.47;16121270;19;129592;-60
2023/12/20 17:58:53;;;;;;;13.23;2.08;;;;;;;20.28;37.18;101215.59;16122820;19;129334;-60
2023/12/20 18:04:19;;;;;;;6.10;1.52;;;;;;;20.41;36.95;101219.97;16118072;19;131563;-64
2023/12/20 18:09:41;;;;;;;7.95;2.00;;;;;;;20.44;36.55;101204.72;16118112;19;129768;-59
2023/12/20 18:15:03;;;;;;;10.85;1.95;;;;;;;20.43;36.82;101183.63;16116950;19;129918;-62
2023/12/20 18:20:25;;;;;;;9.30;2.42;;;;;;;20.43;36.93;101187.22;16119996;19;131587;-64
2023/12/20 18:25:47;;;;;;;12.35;1.80;;;;;;;20.42;37.12;101196.66;16118768;19;129231;-65
2023/12/20 18:31:09;;;;;;;10.63;1.80;;;;;;;20.38;37.00;101200.19;16120694;19;129856;-67
2023/12/20 18:36:32;;;;;;;8.50;1.80;;;;;;;20.32;37.41;101195.63;16116284;19;129541;-65
2023/12/20 18:41:54;;;;;;;12.43;1.98;;;;;;;20.27;37.55;101193.63;16118281;19;130302;-63
2023/12/20 18:47:15;;;;;;;8.25;1.98;;;;;;;20.27;37.40;101183.34;16111963;19;132076;-64
2023/12/20 18:52:37;;;;;;;7.18;1.80;;;;;;;20.32;37.29;101195.63;16118185;19;130756;-66
2023/12/20 18:57:59;;;;;;;11.85;2.28;;;;;;;20.42;37.67;101181.94;16116433;19;129804;-69
2023/12/20 19:03:21;;;;;;;10.25;1.75;;;;;;;20.52;37.09;101176.53;16132920;19;130748;-68
2023/12/20 19:08:44;;;;;;;9.82;1.80;;;;;;;20.60;37.21;101176.09;16171961;19;130759;-61
2023/12/20 19:14:11;;;;;;;18.45;2.42;;;;;;;20.63;37.22;101169.19;16146364;19;129620;-62
2023/12/20 19:19:33;;;;;;;25.83;2.30;;;;;;;20.65;36.97;101177.28;16143241;19;129634;-63
2023/12/20 19:24:55;;;;;;;15.32;2.05;;;;;;;20.66;37.38;101162.31;16143502;19;129477;-65
2023/12/20 19:30:17;;;;;;;24.55;2.70;;;;;;;20.65;37.37;101171.72;16145394;19;130341;-67
2023/12/20 19:35:39;;;;;;;8.00;1.80;;;;;;;20.67;37.40;101150.09;16135601;19;129564;-55
2023/12/20 19:41:01;;;;;;;11.18;2.40;;;;;;;20.81;36.81;101136.69;16112808;19;130547;-55
2023/12/20 19:46:24;;;;;;;13.68;2.17;;;;;;;20.92;36.48;101109.88;16116848;19;129538;-55
2023/12/20 19:51:47;;;;;;;14.52;2.08;;;;;;;20.97;36.66;101119.13;16114158;19;129023;-54
2023/12/20 19:57:09;;;;;;;10.13;1.52;;;;;;;21.01;36.75;101097.19;16110392;19;130020;-57
2023/12/20 20:02:33;;;;;;;6.88;1.42;;;;;;;21.01;36.71;101092.47;16116304;19;129931;-56
2023/12/20 20:07:55;;;;;;;13.15;1.65;;;;;;;21.02;36.40;101090.53;16120463;19;129771;-56
2023/12/20 20:13:18;;;;;;;12.60;1.88;;;;;;;21.02;36.70;101077.44;16127326;19;131905;-53
2023/12/20 20:18:39;;;;;;;7.63;1.35;;;;;;;21.05;36.40;101081.66;16126856;19;130203;-50
2023/12/20 20:24:01;;;;;;;5.70;1.50;;;;;;;21.07;36.58;101057.19;16124525;19;129554;-59
2023/12/20 20:29:23;;;;;;;10.38;2.00;;;;;;;21.09;36.55;101048.63;16114513;19;131468;-55
2023/12/20 20:34:45;;;;;;;9.32;1.52;;;;;;;21.19;36.43;101049.56;16122309;19;130939;-50
2023/12/20 20:40:08;;;;;;;6.90;1.30;;;;;;;21.39;36.11;101052.81;16119443;19;129484;-55
2023/12/20 20:45:30;;;;;;;6.13;1.40;;;;;;;21.60;36.35;101042.78;16123847;19;131037;-54
2023/12/20 20:50:52;;;;;;;11.60;1.20;;;;;;;21.81;35.68;101049.38;16123695;19;131023;-44
2023/12/20 20:56:14;;;;;;;7.78;1.95;;;;;;;22.05;35.67;101037.88;16121670;19;129222;-45
2023/12/20 21:01:36;;;;;;;11.82;1.52;;;;;;;22.23;35.40;101043.03;16121788;19;129780;-44
2023/12/20 21:06:59;;;;;;;4.50;1.23;;;;;;;22.41;35.18;101032.56;16119028;19;132128;-48
2023/12/20 21:12:21;;;;;;;8.75;1.25;;;;;;;22.46;35.15;101042.91;16122018;19;131348;-52
2023/12/20 21:17:43;;;;;;;6.78;1.10;;;;;;;22.42;34.96;101034.25;16119489;19;133568;-46
2023/12/20 21:23:08;;;;;;;3.20;1.20;;;;;;;22.31;35.19;101019.38;16116927;19;130202;-47
2023/12/20 21:28:33;;;;;;;4.57;1.20;;;;;;;22.20;35.39;101020.41;16115179;19;130659;-47
2023/12/20 21:33:56;;;;;;;4.45;1.10;;;;;;;22.05;35.18;101010.81;16118227;19;129637;-49
2023/12/20 21:39:19;;;;;;;5.72;1.00;;;;;;;21.86;35.59;100985.34;16117735;19;130875;-47
2023/12/20 21:44:40;;;;;;;5.90;1.40;;;;;;;21.72;35.50;100984.13;16119008;19;130168;-52
2023/12/20 21:50:02;;;;;;;3.47;1.00;;;;;;;21.60;35.72;100975.97;16118563;19;130481;-48
2023/12/20 21:55:25;;;;;;;5.75;1.30;;;;;;;21.48;36.26;100960.25;16115063;19;130887;-46
2023/12/20 22:00:46;;;;;;;2.97;0.80;;;;;;;21.40;36.13;100960.75;16118404;19;129781;-51
2023/12/20 22:06:09;;;;;;;3.53;1.10;;;;;;;21.27;36.47;100962.00;16117828;19;131143;-50
2023/12/20 22:11:30;;;;;;;3.60;1.13;;;;;;;21.11;36.23;100974.91;16119605;19;130642;-47
2023/12/20 22:16:52;;;;;;;2.80;0.90;;;;;;;20.97;36.36;100973.66;16110994;19;130802;-48
2023/12/20 22:22:14;;;;;;;4.20;1.50;;;;;;;20.78;36.89;100975.94;16106995;19;129552;-50
2023/12/20 22:27:36;;;;;;;3.40;0.80;;;;;;;20.64;36.91;100989.38;16111898;19;131318;-47
2023/12/20 22:32:58;;;;;;;3.65;0.80;;;;;;;20.51;36.87;100987.78;16108249;19;129986;-46
2023/12/20 22:38:20;;;;;;;4.40;1.23;;;;;;;20.37;37.21;100979.84;16117434;19;129546;-46
2023/12/20 22:43:42;;;;;;;5.60;1.20;;;;;;;20.23;37.15;100986.88;16116225;19;129897;-44
2023/12/20 22:49:04;;;;;;;3.33;1.00;;;;;;;20.09;37.26;100975.28;16112389;19;130259;-44
2023/12/20 22:54:26;;;;;;;3.17;0.90;;;;;;;19.97;37.16;100973.41;16112158;19;129433;-45
2023/12/20 22:59:48;;;;;;;2.97;1.00;;;;;;;19.84;37.52;100951.53;16111726;19;130657;-47
2023/12/20 23:05:10;;;;;;;2.88;1.15;;;;;;;19.73;37.41;100936.69;16112988;19;132505;-49
2023/12/20 23:10:34;;;;;;;4.88;1.10;;;;;;;19.62;37.47;100944.00;16109693;19;129274;-46
2023/12/20 23:15:57;;;;;;;3.00;0.70;;;;;;;19.53;37.78;100929.69;16108772;19;130317;-44
2023/12/20 23:21:19;;;;;;;3.65;0.90;;;;;;;19.46;37.87;100923.50;16115179;19;129860;-46
2023/12/20 23:26:42;;;;;;;5.97;1.00;;;;;;;19.38;38.02;100924.75;16110610;19;132129;-44
2023/12/20 23:32:04;;;;;;;1.90;0.75;;;;;;;19.30;38.20;100919.63;16108534;19;130761;-49
2023/12/20 23:37:26;;;;;;;2.53;0.60;;;;;;;19.21;37.87;100910.88;16110182;19;130126;-47
2023/12/20 23:42:48;;;;;;;3.33;0.90;;;;;;;19.14;37.94;100903.75;16105520;19;129845;-48
2023/12/20 23:48:10;;;;;;;4.20;1.02;;;;;;;19.06;38.17;100903.09;16110713;19;131274;-45
2023/12/20 23:53:32;;;;;;;3.28;0.80;;;;;;;18.99;38.08;100902.41;16109823;19;129548;-48
2023/12/20 23:58:54;;;;;;;2.13;0.68;;;;;;;18.92;38.14;100880.38;16108881;19;130921;-45
